createdAt,value
2022-09-22T00:01:26.178Z,100721.56
2022-09-22T00:04:00.906Z,100726.06
2022-09-22T00:06:30.762Z,100719.88
2022-09-22T00:09:02.419Z,100731.09
2022-09-22T00:11:36.323Z,100710.41
2022-09-22T00:14:09.879Z,100715.41
2022-09-22T00:16:42.885Z,100719.16
2022-09-22T00:19:32.064Z,100727.31
2022-09-22T00:21:58.670Z,100727.31
2022-09-22T00:24:26.992Z,100728.16
2022-09-22T00:26:58.170Z,100724.47
2022-09-22T00:29:26.416Z,100722.59
2022-09-22T00:31:54.042Z,100720.91
2022-09-22T00:34:23.552Z,100713.25
2022-09-22T00:36:50.310Z,100715.69
2022-09-22T00:39:18.119Z,100733.19
2022-09-22T00:41:53.202Z,100729.75
2022-09-22T00:44:42.837Z,100744.66
2022-09-22T00:47:20.980Z,100742.91
2022-09-22T00:49:53.391Z,100740.28
2022-09-22T00:52:26.391Z,100747.41
2022-09-22T00:54:59.230Z,100731.66
2022-09-22T00:57:30.244Z,100734.91
2022-09-22T00:59:57.587Z,100727.09
2022-09-22T01:02:25.545Z,100733.19
2022-09-22T01:04:53.847Z,100729.81
2022-09-22T01:07:22.721Z,100725.63
2022-09-22T01:09:49.662Z,100734.22
2022-09-22T01:12:16.338Z,100731.53
2022-09-22T01:15:01.440Z,100735.84
2022-09-22T01:17:38.282Z,100739.28
2022-09-22T01:20:26.129Z,100740.94
2022-09-22T01:23:25.332Z,100737.25
2022-09-22T01:26:19.057Z,100743.28
2022-09-22T01:28:59.068Z,100741.34
2022-09-22T01:32:07.267Z,100734.16
2022-09-22T01:34:40.006Z,100723.88
2022-09-22T01:37:09.715Z,100723.88
2022-09-22T01:39:58.883Z,100714.38
2022-09-22T01:42:45.114Z,100721.28
2022-09-22T01:45:20.484Z,100705.75
2022-09-22T01:47:53.367Z,100715.41
2022-09-22T01:50:30.377Z,100650.75
2022-09-22T01:53:01.557Z,100712.56
2022-09-22T01:55:33.570Z,100707.19
2022-09-22T01:58:14.347Z,100706.94
2022-09-22T02:00:47.441Z,100693.91
2022-09-22T02:03:24.821Z,100711.13
2022-09-22T02:06:02.672Z,100707.56
2022-09-22T02:08:36.113Z,100695.50
2022-09-22T02:11:13.866Z,100697.34
2022-09-22T02:13:41.554Z,100720.78
2022-09-22T02:16:09.093Z,100721.50
2022-09-22T02:18:45.066Z,100718.16
2022-09-22T02:21:11.918Z,100723.19
2022-09-22T02:23:38.940Z,100707.41
2022-09-22T02:26:08.465Z,100719.81
2022-09-22T02:28:39.090Z,100719.19
2022-09-22T02:31:23.063Z,100720.13
2022-09-22T02:33:52.776Z,100711.25
2022-09-22T02:36:34.224Z,100709.84
2022-09-22T02:39:13.195Z,100720.25
2022-09-22T02:42:07.857Z,100710.84
2022-09-22T02:44:54.438Z,100712.50
2022-09-22T02:47:32.540Z,100716.81
2022-09-22T02:50:02.060Z,100701.28
2022-09-22T02:52:28.620Z,100715.00
2022-09-22T02:54:55.412Z,100692.63
2022-09-22T02:57:23.454Z,100709.00
2022-09-22T02:59:50.158Z,100724.63
2022-09-22T03:02:16.886Z,100715.88
2022-09-22T03:04:43.615Z,100720.13
2022-09-22T03:07:10.274Z,100722.81
2022-09-22T03:09:36.854Z,100721.97
2022-09-22T03:12:05.366Z,100725.47
2022-09-22T03:14:31.930Z,100731.72
2022-09-22T03:16:58.480Z,100734.47
2022-09-22T03:19:25.071Z,100705.03
2022-09-22T03:21:51.629Z,100725.75
2022-09-22T03:24:18.271Z,100735.28
2022-09-22T03:26:44.903Z,100739.69
2022-09-22T03:29:11.489Z,100733.81
2022-09-22T03:31:38.169Z,100748.44
2022-09-22T03:34:05.506Z,100734.38
2022-09-22T03:36:32.446Z,100751.88
2022-09-22T03:39:00.289Z,100756.06
2022-09-22T03:41:27.535Z,100711.88
2022-09-22T03:43:55.227Z,100750.63
2022-09-22T03:46:22.103Z,100757.81
2022-09-22T03:48:49.695Z,100758.78
2022-09-22T03:51:16.696Z,100753.34
2022-09-22T03:53:43.251Z,100749.84
2022-09-22T03:56:12.684Z,100742.69
2022-09-22T03:58:40.399Z,100744.50
2022-09-22T04:01:08.953Z,100749.66
2022-09-22T04:03:36.351Z,100745.19
2022-09-22T04:06:03.938Z,100758.41
2022-09-22T04:08:30.515Z,100759.28
2022-09-22T04:11:01.575Z,100756.56
2022-09-22T04:13:48.138Z,100755.72
2022-09-22T04:16:14.832Z,100746.22
2022-09-22T04:18:41.483Z,100749.38
2022-09-22T04:21:08.665Z,100743.84
2022-09-22T04:23:36.123Z,100746.41
2022-09-22T04:26:03.214Z,100740.97
2022-09-22T04:28:30.428Z,100757.41
2022-09-22T04:30:59.667Z,100743.63
2022-09-22T04:33:26.431Z,100750.38
2022-09-22T04:35:53.457Z,100751.84
2022-09-22T04:38:21.391Z,100749.91
2022-09-22T04:40:49.656Z,100756.81
2022-09-22T04:43:16.279Z,100752.19
2022-09-22T04:45:48.970Z,100745.09
2022-09-22T04:48:16.268Z,100751.69
2022-09-22T04:50:47.801Z,100763.03
2022-09-22T04:53:15.967Z,100765.69
2022-09-22T04:55:42.551Z,100765.91
2022-09-22T04:58:10.078Z,100755.38
2022-09-22T05:00:37.751Z,100770.00
2022-09-22T05:03:12.236Z,100751.63
2022-09-22T05:05:39.520Z,100761.09
2022-09-22T05:08:06.078Z,100756.91
2022-09-22T05:10:36.761Z,100757.81
2022-09-22T05:13:06.923Z,100750.91
2022-09-22T05:15:34.778Z,100764.50
2022-09-22T05:18:01.697Z,100762.91
2022-09-22T05:20:28.352Z,100763.66
2022-09-22T05:22:55.099Z,100726.81
2022-09-22T05:25:21.916Z,100743.63
2022-09-22T05:27:50.714Z,100722.81
2022-09-22T05:30:18.328Z,100738.06
2022-09-22T05:32:46.950Z,100750.88
2022-09-22T05:35:15.415Z,100750.25
2022-09-22T05:37:46.818Z,100764.06
2022-09-22T05:40:14.032Z,100763.00
2022-09-22T05:42:48.101Z,100729.53
2022-09-22T05:45:16.844Z,100751.28
2022-09-22T05:47:44.667Z,100757.47
2022-09-22T05:50:12.921Z,100755.00
2022-09-22T05:52:39.959Z,100744.31
2022-09-22T05:55:07.486Z,100747.25
2022-09-22T05:57:35.039Z,100750.72
2022-09-22T06:00:01.923Z,100755.75
2022-09-22T06:02:28.558Z,100759.47
2022-09-22T06:04:55.255Z,100715.94
2022-09-22T06:07:24.183Z,100758.19
2022-09-22T06:09:51.491Z,100744.06
2022-09-22T06:12:20.795Z,100751.41
2022-09-22T06:14:47.433Z,100745.50
2022-09-22T06:17:14.066Z,100743.78
2022-09-22T06:19:41.634Z,100745.19
2022-09-22T06:22:11.083Z,100753.06
2022-09-22T06:24:37.783Z,100741.97
2022-09-22T06:27:05.808Z,100731.44
2022-09-22T06:29:32.393Z,100729.78
2022-09-22T06:31:59.004Z,100742.31
2022-09-22T06:34:28.610Z,100740.06
2022-09-22T06:36:59.237Z,100739.56
2022-09-22T06:39:25.976Z,100734.94
2022-09-22T06:41:52.584Z,100736.06
2022-09-22T06:44:21.374Z,100723.63
2022-09-22T06:46:48.034Z,100737.09
2022-09-22T06:49:14.719Z,100736.50
2022-09-22T06:51:41.324Z,100751.78
2022-09-22T06:54:07.997Z,100739.06
2022-09-22T06:56:39.963Z,100739.84
2022-09-22T06:59:10.939Z,100740.72
2022-09-22T07:01:38.682Z,100746.66
2022-09-22T07:04:05.885Z,100740.34
2022-09-22T07:06:32.502Z,100756.03
2022-09-22T07:08:59.408Z,100758.88
2022-09-22T07:11:26.812Z,100761.84
2022-09-22T07:13:54.395Z,100755.19
2022-09-22T07:16:23.765Z,100759.34
2022-09-22T07:18:53.899Z,100754.03
2022-09-22T07:21:38.443Z,100759.34
2022-09-22T07:24:08.238Z,100762.25
2022-09-22T07:26:38.594Z,100752.22
2022-09-22T07:29:11.762Z,100754.47
2022-09-22T07:31:39.289Z,100745.75
2022-09-22T07:34:05.876Z,100744.81
2022-09-22T07:36:34.993Z,100750.47
2022-09-22T07:39:07.553Z,100764.31
2022-09-22T07:41:41.876Z,100734.13
2022-09-22T07:44:30.738Z,100742.13
2022-09-22T07:46:59.030Z,100746.78
2022-09-22T07:49:26.142Z,100739.19
2022-09-22T07:51:55.076Z,100739.38
2022-09-22T07:54:23.019Z,100753.28
2022-09-22T07:56:52.046Z,100732.88
2022-09-22T07:59:18.652Z,100721.13
2022-09-22T08:01:47.746Z,100743.72
2022-09-22T08:04:16.874Z,100733.75
2022-09-22T08:06:49.000Z,100744.56
2022-09-22T08:09:15.953Z,100738.06
2022-09-22T08:11:46.028Z,100739.78
2022-09-22T08:14:12.938Z,100727.72
2022-09-22T08:16:40.971Z,100704.19
2022-09-22T08:19:12.972Z,100729.97
2022-09-22T08:21:48.322Z,100728.06
2022-09-22T08:24:21.547Z,100718.66
2022-09-22T08:26:50.619Z,100739.28
2022-09-22T08:29:17.314Z,100732.22
2022-09-22T08:31:47.578Z,100741.78
2022-09-22T08:34:17.122Z,100733.25
2022-09-22T08:36:48.856Z,100736.81
2022-09-22T08:39:19.066Z,100740.50
2022-09-22T08:42:08.271Z,100750.56
2022-09-22T08:45:01.980Z,100749.25
2022-09-22T08:48:06.805Z,100738.84
2022-09-22T08:51:03.514Z,100744.09
2022-09-22T08:53:32.814Z,100748.91
2022-09-22T08:56:07.124Z,100751.84
2022-09-22T08:58:44.009Z,100763.16
2022-09-22T09:01:43.604Z,100756.84
2022-09-22T09:04:26.434Z,100760.69
2022-09-22T09:07:11.857Z,100748.44
2022-09-22T09:09:51.769Z,100756.56
2022-09-22T09:12:44.123Z,100755.22
2022-09-22T09:15:39.283Z,100760.72
2022-09-22T09:18:16.395Z,100759.97
2022-09-22T09:20:48.126Z,100742.13
2022-09-22T09:23:21.396Z,100758.97
2022-09-22T09:25:53.345Z,100773.00
2022-09-22T09:28:27.676Z,100761.59
2022-09-22T09:31:04.738Z,100759.97
2022-09-22T09:33:44.025Z,100768.81
2022-09-22T09:38:52.050Z,100773.78
2022-09-22T09:41:34.104Z,100755.91
2022-09-22T09:44:03.191Z,100769.06
2022-09-22T09:46:38.250Z,100769.34
2022-09-22T09:49:18.225Z,100765.31
2022-09-22T09:51:48.530Z,100760.38
2022-09-22T09:54:17.714Z,100772.94
2022-09-22T09:57:07.269Z,100769.00
2022-09-22T09:59:54.153Z,100765.13
2022-09-22T10:02:26.832Z,100756.16
2022-09-22T10:04:58.581Z,100764.91
2022-09-22T10:07:32.731Z,100757.00
2022-09-22T10:10:38.041Z,100762.66
2022-09-22T10:13:05.244Z,100766.44
2022-09-22T10:15:37.859Z,100770.63
2022-09-22T10:18:24.498Z,100763.78
2022-09-22T10:21:07.186Z,100758.88
2022-09-22T10:23:36.940Z,100759.47
2022-09-22T10:26:23.380Z,100755.53
2022-09-22T10:29:20.186Z,100752.16
2022-09-22T10:32:14.954Z,100750.69
2022-09-22T10:37:25.959Z,100754.06
2022-09-22T10:39:54.530Z,100742.47
2022-09-22T10:42:33.478Z,100754.31
2022-09-22T10:45:08.286Z,100745.34
2022-09-22T10:47:59.290Z,100741.66
2022-09-22T10:50:51.707Z,100742.69
2022-09-22T10:53:25.633Z,100741.06
2022-09-22T10:56:11.510Z,100721.72
2022-09-22T10:58:58.490Z,100731.84
2022-09-22T11:01:33.048Z,100742.09
2022-09-22T11:04:18.438Z,100729.53
2022-09-22T11:07:11.358Z,100727.13
2022-09-22T11:10:00.939Z,100720.91
2022-09-22T11:12:42.771Z,100717.81
2022-09-22T11:15:33.525Z,100722.28
2022-09-22T11:18:21.360Z,100727.88
2022-09-22T11:21:08.087Z,100723.66
2022-09-22T11:23:53.753Z,100728.72
2022-09-22T11:26:50.231Z,100727.09
2022-09-22T11:30:26.962Z,100729.94
2022-09-22T11:32:56.342Z,100716.34
2022-09-22T11:35:41.309Z,100726.25
2022-09-22T11:38:13.454Z,100722.97
2022-09-22T11:40:49.499Z,100708.28
2022-09-22T11:43:18.624Z,100718.94
2022-09-22T11:45:57.378Z,100723.66
2022-09-22T11:48:42.265Z,100729.03
2022-09-22T11:51:30.647Z,100720.13
2022-09-22T11:54:20.585Z,100723.72
2022-09-22T11:56:51.407Z,100715.91
2022-09-22T11:59:39.463Z,100659.09
2022-09-22T12:02:31.666Z,100726.97
2022-09-22T12:05:06.135Z,100724.56
2022-09-22T12:07:46.781Z,100707.00
2022-09-22T12:10:26.028Z,100717.22
2022-09-22T12:12:53.155Z,100712.59
2022-09-22T12:15:29.215Z,100709.16
2022-09-22T12:18:05.442Z,100714.88
2022-09-22T12:20:41.083Z,100716.50
2022-09-22T12:23:31.330Z,100711.19
2022-09-22T12:26:02.691Z,100704.69
2022-09-22T12:28:32.255Z,100713.97
2022-09-22T12:31:06.810Z,100715.06
2022-09-22T12:33:36.480Z,100714.53
2022-09-22T12:36:04.328Z,100719.25
2022-09-22T12:38:32.315Z,100704.88
2022-09-22T12:41:04.226Z,100698.47
2022-09-22T12:43:33.502Z,100698.34
2022-09-22T12:46:16.767Z,100688.91
2022-09-22T12:48:45.945Z,100685.63
2022-09-22T12:51:32.653Z,100699.34
2022-09-22T12:54:23.539Z,100697.50
2022-09-22T12:57:03.985Z,100693.91
2022-09-22T12:59:36.369Z,100697.91
2022-09-22T13:02:29.528Z,100701.66
2022-09-22T13:04:56.043Z,100698.69
2022-09-22T13:07:47.330Z,100704.84
2022-09-22T13:10:22.921Z,100690.78
2022-09-22T13:13:10.308Z,100693.78
2022-09-22T13:15:45.905Z,100695.56
2022-09-22T13:18:43.775Z,100696.34
2022-09-22T13:21:13.023Z,100693.94
2022-09-22T13:23:55.485Z,100679.38
2022-09-22T13:26:23.739Z,100695.25
2022-09-22T13:29:00.241Z,100694.56
2022-09-22T13:31:27.247Z,100690.09
2022-09-22T13:33:53.927Z,100686.66
2022-09-22T13:36:24.580Z,100684.94
2022-09-22T13:38:57.772Z,100679.53
2022-09-22T13:41:30.585Z,100676.28
2022-09-22T13:44:07.911Z,100683.38
2022-09-22T13:46:47.606Z,100678.72
2022-09-22T13:49:25.289Z,100681.75
2022-09-22T13:51:57.454Z,100684.56
2022-09-22T13:54:28.525Z,100684.09
2022-09-22T13:56:56.121Z,100674.56
2022-09-22T13:59:23.645Z,100690.56
2022-09-22T14:01:53.596Z,100682.97
2022-09-22T14:04:25.382Z,100691.75
2022-09-22T14:07:01.744Z,100700.41
2022-09-22T14:09:30.182Z,100690.66
2022-09-22T14:11:58.059Z,100692.66
2022-09-22T14:14:27.183Z,100692.91
2022-09-22T14:17:02.824Z,100705.38
2022-09-22T14:19:33.217Z,100682.41
2022-09-22T14:22:22.889Z,100715.44
2022-09-22T14:24:56.757Z,100714.69
2022-09-22T14:27:30.158Z,100700.00
2022-09-22T14:29:58.123Z,100710.38
2022-09-22T14:32:24.649Z,100712.84
2022-09-22T14:34:56.753Z,100698.84
2022-09-22T14:37:31.783Z,100696.25
2022-09-22T14:40:03.325Z,100693.75
2022-09-22T14:42:32.145Z,100702.50
2022-09-22T14:45:19.352Z,100698.91
2022-09-22T14:47:45.952Z,100707.53
2022-09-22T14:50:24.495Z,100709.25
2022-09-22T14:53:01.829Z,100696.19
2022-09-22T14:55:44.212Z,100699.56
2022-09-22T14:58:24.323Z,100691.75
2022-09-22T15:01:09.770Z,100698.91
2022-09-22T15:03:38.768Z,100699.16
2022-09-22T15:06:11.330Z,100709.75
2022-09-22T15:08:39.449Z,100705.69
2022-09-22T15:11:06.175Z,100710.69
2022-09-22T15:13:36.272Z,100709.03
2022-09-22T15:16:03.225Z,100696.66
2022-09-22T15:18:31.058Z,100702.19
2022-09-22T15:21:18.561Z,100711.00
2022-09-22T15:23:48.486Z,100705.69
2022-09-22T15:26:19.826Z,100681.59
2022-09-22T15:28:50.543Z,100701.16
2022-09-22T15:31:26.402Z,100709.13
2022-09-22T15:33:54.605Z,100710.00
2022-09-22T15:36:22.775Z,100709.13
2022-09-22T15:38:49.460Z,100698.66
2022-09-22T15:41:18.382Z,100710.06
2022-09-22T15:43:45.201Z,100703.72
2022-09-22T15:46:47.701Z,100694.22
2022-09-22T15:49:22.563Z,100693.63
2022-09-22T15:51:49.870Z,100694.34
2022-09-22T15:54:21.809Z,100698.09
2022-09-22T15:56:52.175Z,100705.75
2022-09-22T15:59:26.762Z,100711.16
2022-09-22T16:01:56.874Z,100717.31
2022-09-22T16:04:23.882Z,100716.53
2022-09-22T16:07:04.065Z,100721.09
2022-09-22T16:09:31.089Z,100693.66
2022-09-22T16:11:57.835Z,100715.09
2022-09-22T16:14:24.597Z,100718.81
2022-09-22T16:16:52.265Z,100719.88
2022-09-22T16:19:18.887Z,100707.91
2022-09-22T16:21:54.307Z,100703.75
2022-09-22T16:24:22.607Z,100707.16
2022-09-22T16:26:49.578Z,100699.22
2022-09-22T16:29:16.679Z,100714.97
2022-09-22T16:31:43.295Z,100708.78
2022-09-22T16:34:10.787Z,100697.47
2022-09-22T16:36:37.476Z,100706.25
2022-09-22T16:39:04.530Z,100702.84
2022-09-22T16:41:33.135Z,100697.78
2022-09-22T16:44:01.196Z,100709.34
2022-09-22T16:46:34.520Z,100706.78
2022-09-22T16:49:17.950Z,100701.41
2022-09-22T16:51:50.883Z,100701.34
2022-09-22T16:54:19.777Z,100711.13
2022-09-22T16:56:49.002Z,100684.69
2022-09-22T16:59:17.586Z,100702.69
2022-09-22T17:01:44.612Z,100707.69
2022-09-22T17:04:14.082Z,100715.84
2022-09-22T17:06:41.722Z,100710.63
2022-09-22T17:09:09.988Z,100704.72
2022-09-22T17:11:39.222Z,100712.47
2022-09-22T17:14:12.082Z,100705.31
2022-09-22T17:16:44.430Z,100698.22
2022-09-22T17:19:18.527Z,100699.13
2022-09-22T17:21:48.015Z,100695.72
2022-09-22T17:24:15.505Z,100700.03
2022-09-22T17:26:51.671Z,100695.50
2022-09-22T17:29:19.164Z,100683.22
2022-09-22T17:31:49.136Z,100682.25
2022-09-22T17:34:15.924Z,100685.50
2022-09-22T17:36:42.539Z,100680.97
2022-09-22T17:39:10.609Z,100682.09
2022-09-22T17:41:46.860Z,100674.16
2022-09-22T17:44:35.705Z,100687.09
2022-09-22T17:47:21.722Z,100679.09
2022-09-22T17:50:07.016Z,100673.75
2022-09-22T17:52:33.617Z,100661.41
2022-09-22T17:55:12.031Z,100652.88
2022-09-22T17:57:41.165Z,100654.66
2022-09-22T18:00:14.475Z,100665.72
2022-09-22T18:02:41.096Z,100642.63
2022-09-22T18:05:14.093Z,100661.25
2022-09-22T18:07:41.228Z,100659.66
2022-09-22T18:10:10.006Z,100669.28
2022-09-22T18:12:37.157Z,100675.50
2022-09-22T18:15:04.850Z,100672.56
2022-09-22T18:17:40.103Z,100670.63
2022-09-22T18:20:08.581Z,100674.59
2022-09-22T18:22:35.162Z,100669.19
2022-09-22T18:25:02.116Z,100660.13
2022-09-22T18:27:28.739Z,100648.63
2022-09-22T18:30:16.083Z,100650.06
2022-09-22T18:32:42.787Z,100641.47
2022-09-22T18:35:09.729Z,100654.22
2022-09-22T18:37:36.401Z,100649.06
2022-09-22T18:40:03.058Z,100649.75
2022-09-22T18:42:32.397Z,100648.13
2022-09-22T18:44:59.130Z,100644.53
2022-09-22T18:47:26.361Z,100637.63
2022-09-22T18:49:52.964Z,100643.75
2022-09-22T18:52:25.284Z,100627.25
2022-09-22T18:54:54.074Z,100642.84
2022-09-22T18:57:22.283Z,100642.78
2022-09-22T19:02:23.187Z,100629.00
2022-09-22T19:04:51.867Z,100636.34
2022-09-22T19:07:43.622Z,100640.94
2022-09-22T19:10:13.452Z,100650.63
2022-09-22T19:12:41.178Z,100638.22
2022-09-22T19:15:13.593Z,100635.72
2022-09-22T19:17:44.090Z,100637.38
2022-09-22T19:20:17.388Z,100633.06
2022-09-22T19:22:44.711Z,100638.38
2022-09-22T19:25:12.157Z,100620.34
2022-09-22T19:27:39.997Z,100616.72
2022-09-22T19:30:10.385Z,100634.00
2022-09-22T19:32:37.675Z,100633.16
2022-09-22T19:35:06.724Z,100635.19
2022-09-22T19:37:35.395Z,100624.88
2022-09-22T19:40:02.608Z,100632.69
2022-09-22T19:42:29.243Z,100632.69
2022-09-22T19:44:56.106Z,100608.69
2022-09-22T19:47:23.404Z,100640.72
2022-09-22T19:49:50.155Z,100638.13
2022-09-22T19:52:18.235Z,100629.50
2022-09-22T19:54:44.813Z,100632.75
2022-09-22T19:57:11.672Z,100635.34
2022-09-22T19:59:38.309Z,100622.44
2022-09-22T20:02:10.540Z,100628.31
2022-09-22T20:04:37.450Z,100637.00
2022-09-22T20:07:04.266Z,100634.41
2022-09-22T20:09:30.954Z,100631.78
2022-09-22T20:11:57.618Z,100635.34
2022-09-22T20:14:27.799Z,100625.44
2022-09-22T20:17:03.242Z,100637.00
2022-09-22T20:19:35.223Z,100624.81
2022-09-22T20:22:18.869Z,100629.97
2022-09-22T20:24:57.389Z,100612.50
2022-09-22T20:27:37.174Z,100619.22
2022-09-22T20:30:04.496Z,100621.94
2022-09-22T20:32:32.341Z,100618.38
2022-09-22T20:34:59.222Z,100609.75
2022-09-22T20:37:26.416Z,100599.31
2022-09-22T20:39:53.524Z,100603.63
2022-09-22T20:42:20.305Z,100591.50
2022-09-22T20:44:48.085Z,100588.72
2022-09-22T20:47:21.973Z,100585.16
2022-09-22T20:49:51.779Z,100589.44
2022-09-22T20:52:20.183Z,100592.16
2022-09-22T20:54:47.479Z,100589.31
2022-09-22T20:57:15.887Z,100584.00
2022-09-22T20:59:45.758Z,100581.34
2022-09-22T21:02:14.069Z,100575.09
2022-09-22T21:04:42.362Z,100577.69
2022-09-22T21:07:10.228Z,100576.75
2022-09-22T21:09:55.404Z,100569.94
2022-09-22T21:12:25.272Z,100576.84
2022-09-22T21:14:56.303Z,100567.97
2022-09-22T21:17:23.660Z,100558.44
2022-09-22T21:19:50.573Z,100555.78
2022-09-22T21:22:17.467Z,100562.81
2022-09-22T21:24:45.894Z,100563.44
2022-09-22T21:27:13.783Z,100561.66
2022-09-22T21:29:41.395Z,100561.53
2022-09-22T21:32:09.587Z,100548.34
2022-09-22T21:34:36.645Z,100549.06
2022-09-22T21:37:05.210Z,100536.03
2022-09-22T21:39:34.035Z,100542.91
2022-09-22T21:42:01.873Z,100544.56
2022-09-22T21:44:28.574Z,100547.22
2022-09-22T21:46:55.244Z,100527.94
2022-09-22T21:49:21.967Z,100526.06
2022-09-22T21:51:48.647Z,100504.66
2022-09-22T21:54:17.825Z,100531.31
2022-09-22T21:56:45.258Z,100507.94
2022-09-22T21:59:13.483Z,100527.56
2022-09-22T22:01:41.988Z,100522.22
2022-09-22T22:04:10.387Z,100525.84
2022-09-22T22:06:42.142Z,100512.94
2022-09-22T22:09:16.303Z,100520.63
2022-09-22T22:11:45.512Z,100512.75
2022-09-22T22:14:13.052Z,100506.81
2022-09-22T22:16:45.504Z,100489.56
2022-09-22T22:19:14.178Z,100515.34
2022-09-22T22:21:42.802Z,100501.56
2022-09-22T22:24:18.866Z,100512.69
2022-09-22T22:26:51.806Z,100497.13
2022-09-22T22:29:21.102Z,100500.66
2022-09-22T22:31:51.910Z,100504.06
2022-09-22T22:34:20.821Z,100515.47
2022-09-22T22:36:48.805Z,100518.91
2022-09-22T22:39:16.456Z,100510.19
2022-09-22T22:41:43.417Z,100504.91
2022-09-22T22:44:10.466Z,100503.16
2022-09-22T22:46:37.405Z,100498.00
2022-09-22T22:49:07.679Z,100499.69
2022-09-22T22:51:37.571Z,100495.50
2022-09-22T22:54:05.044Z,100504.91
2022-09-22T22:56:32.430Z,100476.31
2022-09-22T22:58:59.617Z,100492.56
2022-09-22T23:01:31.315Z,100493.47
2022-09-22T23:04:04.596Z,100489.91
2022-09-22T23:06:35.814Z,100488.19
2022-09-22T23:09:04.628Z,100490.13
2022-09-22T23:11:37.181Z,100483.09
2022-09-22T23:14:06.210Z,100482.28
2022-09-22T23:16:39.582Z,100471.44
2022-09-22T23:19:08.414Z,100463.91
2022-09-22T23:21:36.502Z,100484.88
2022-09-22T23:24:05.588Z,100481.31
2022-09-22T23:26:32.635Z,100460.50
2022-09-22T23:28:59.939Z,100479.41
2022-09-22T23:31:27.807Z,100486.97
2022-09-22T23:33:54.454Z,100486.97
2022-09-22T23:36:24.310Z,100485.97
2022-09-22T23:39:05.321Z,100473.81
2022-09-22T23:41:36.784Z,100478.19
2022-09-22T23:44:05.874Z,100488.63
2022-09-22T23:46:33.980Z,100487.81
2022-09-22T23:49:00.646Z,100476.31
2022-09-22T23:51:27.787Z,100473.56
2022-09-22T23:53:54.492Z,100473.66
2022-09-22T23:56:21.060Z,100474.34
2022-09-22T23:58:48.048Z,100472.59
